createdAt,value
2018-03-25T00:00:21.002Z,0
2018-03-25T00:01:30.081Z,0
2018-03-25T00:02:39.073Z,0
2018-03-25T00:03:48.446Z,0
2018-03-25T00:04:57.650Z,0
2018-03-25T00:06:06.901Z,0
2018-03-25T00:07:15.995Z,0
2018-03-25T00:08:24.738Z,0
2018-03-25T00:09:33.902Z,0
2018-03-25T00:10:43.268Z,0
2018-03-25T00:11:52.006Z,0
2018-03-25T00:13:01.289Z,0
2018-03-25T00:14:10.387Z,0
2018-03-25T00:15:19.500Z,0
2018-03-25T00:16:28.267Z,0
2018-03-25T00:17:37.520Z,0
2018-03-25T00:18:46.547Z,0
2018-03-25T00:19:55.640Z,0
2018-03-25T00:21:05.008Z,0
2018-03-25T00:22:14.052Z,0
2018-03-25T00:23:23.053Z,0
2018-03-25T00:24:32.384Z,0
2018-03-25T00:25:41.708Z,0
2018-03-25T00:26:51.030Z,0
2018-03-25T00:28:00.258Z,0
2018-03-25T00:29:09.851Z,0
2018-03-25T00:30:19.109Z,0
2018-03-25T00:31:27.839Z,0
2018-03-25T00:32:37.036Z,0
2018-03-25T00:33:46.162Z,0
2018-03-25T00:34:55.455Z,0
2018-03-25T00:36:04.740Z,0
2018-03-25T00:37:13.716Z,0
2018-03-25T00:38:23.316Z,0
2018-03-25T00:39:32.689Z,0
2018-03-25T00:40:41.469Z,0
2018-03-25T00:41:50.798Z,0
2018-03-25T00:43:00.154Z,0
2018-03-25T00:44:08.901Z,0
2018-03-25T00:45:19.697Z,0
2018-03-25T00:46:29.074Z,0
2018-03-25T00:47:38.107Z,0
2018-03-25T00:48:46.854Z,0
2018-03-25T00:49:56.549Z,0
2018-03-25T00:51:05.830Z,0
2018-03-25T00:52:14.825Z,0
2018-03-25T00:53:24.024Z,0
2018-03-25T00:54:33.778Z,0
2018-03-25T00:55:42.576Z,0
2018-03-25T00:56:51.807Z,0
2018-03-25T00:58:00.787Z,0
2018-03-25T00:59:10.089Z,0
2018-03-25T01:00:18.797Z,0
2018-03-25T01:01:28.034Z,0
2018-03-25T01:02:37.061Z,0
2018-03-25T01:03:46.026Z,0
2018-03-25T01:04:54.771Z,0
2018-03-25T01:06:04.032Z,0
2018-03-25T01:07:13.019Z,0
2018-03-25T01:08:21.721Z,0
2018-03-25T01:09:30.687Z,0
2018-03-25T01:10:40.503Z,0
2018-03-25T01:11:50.029Z,0
2018-03-25T01:12:59.323Z,0
2018-03-25T01:14:08.072Z,0
2018-03-25T01:15:17.407Z,0
2018-03-25T01:16:26.977Z,0
2018-03-25T01:17:36.700Z,0
2018-03-25T01:18:45.934Z,0
2018-03-25T01:19:55.150Z,0
2018-03-25T01:21:04.193Z,0
2018-03-25T01:22:13.134Z,0
2018-03-25T01:23:22.351Z,0
2018-03-25T01:24:31.607Z,0
2018-03-25T01:25:40.908Z,0
2018-03-25T01:26:50.491Z,0
2018-03-25T01:27:59.827Z,0
2018-03-25T01:29:08.772Z,0
2018-03-25T01:30:17.525Z,0
2018-03-25T01:31:26.578Z,0
2018-03-25T01:32:35.704Z,0
2018-03-25T01:33:44.714Z,0
2018-03-25T01:34:53.528Z,0
2018-03-25T01:36:02.587Z,0
2018-03-25T01:37:11.673Z,0
2018-03-25T01:38:21.059Z,0
2018-03-25T01:39:30.642Z,0
2018-03-25T01:40:39.706Z,0
2018-03-25T01:41:48.680Z,0
2018-03-25T01:42:57.956Z,0
2018-03-25T01:44:06.670Z,0
2018-03-25T01:45:15.931Z,0
2018-03-25T01:46:25.419Z,0
2018-03-25T01:47:34.220Z,0
2018-03-25T01:48:42.966Z,0
2018-03-25T01:49:52.228Z,0
2018-03-25T01:51:01.264Z,0
2018-03-25T01:52:10.314Z,0
2018-03-25T01:53:19.256Z,0
2018-03-25T01:54:28.215Z,0
2018-03-25T01:55:37.238Z,0
2018-03-25T01:56:46.521Z,0
2018-03-25T01:57:55.280Z,0
2018-03-25T01:59:04.097Z,0
2018-03-25T02:00:12.890Z,0
2018-03-25T02:01:22.150Z,0
2018-03-25T02:02:31.401Z,0
2018-03-25T02:03:40.473Z,0
2018-03-25T02:04:49.739Z,0
2018-03-25T02:05:59.345Z,0
2018-03-25T02:07:08.364Z,0
2018-03-25T02:08:18.020Z,0
2018-03-25T02:09:27.332Z,0
2018-03-25T02:10:36.579Z,0
2018-03-25T02:11:45.590Z,0
2018-03-25T02:12:54.531Z,0
2018-03-25T02:14:03.853Z,0
2018-03-25T02:15:12.624Z,0
2018-03-25T02:16:21.696Z,0
2018-03-25T02:17:30.436Z,0
2018-03-25T02:18:39.480Z,0
2018-03-25T02:19:48.562Z,0
2018-03-25T02:20:57.956Z,0
2018-03-25T02:22:06.945Z,0
2018-03-25T02:23:15.756Z,0
2018-03-25T02:24:24.716Z,0
2018-03-25T02:25:33.806Z,0
2018-03-25T02:26:43.319Z,0
2018-03-25T02:27:52.445Z,0
2018-03-25T02:29:02.108Z,0
2018-03-25T02:30:11.384Z,0
2018-03-25T02:31:20.488Z,0
2018-03-25T02:32:30.078Z,0
2018-03-25T02:33:39.131Z,0
2018-03-25T02:34:48.426Z,0
2018-03-25T02:35:57.802Z,0
2018-03-25T02:37:07.112Z,0
2018-03-25T02:38:16.690Z,0
2018-03-25T02:39:26.092Z,0
2018-03-25T02:40:35.128Z,0
2018-03-25T02:41:44.439Z,0
2018-03-25T02:42:53.764Z,0
2018-03-25T02:44:03.025Z,0
2018-03-25T02:45:12.094Z,0
2018-03-25T02:46:21.152Z,0
2018-03-25T02:47:30.226Z,0
2018-03-25T02:48:39.605Z,0
2018-03-25T02:49:48.714Z,0
2018-03-25T02:50:57.796Z,0
2018-03-25T02:52:07.094Z,0
2018-03-25T02:53:16.630Z,0
2018-03-25T02:54:25.602Z,0
2018-03-25T02:55:34.609Z,0
2018-03-25T02:56:44.357Z,0
2018-03-25T02:57:53.702Z,0
2018-03-25T02:59:03.038Z,0
2018-03-25T03:00:12.304Z,0
2018-03-25T03:01:21.276Z,0
2018-03-25T03:02:30.053Z,0
2018-03-25T03:03:39.007Z,0
2018-03-25T03:04:48.157Z,0
2018-03-25T03:05:57.713Z,0
2018-03-25T03:07:06.707Z,0
2018-03-25T03:08:15.482Z,0
2018-03-25T03:09:25.044Z,0
2018-03-25T03:10:34.085Z,0
2018-03-25T03:11:43.348Z,0
2018-03-25T03:12:52.654Z,0
2018-03-25T03:14:01.677Z,0
2018-03-25T03:15:10.408Z,0
2018-03-25T03:16:19.478Z,0
2018-03-25T03:17:28.501Z,0
2018-03-25T03:18:37.467Z,0
2018-03-25T03:19:47.035Z,0
2018-03-25T03:20:55.861Z,0
2018-03-25T03:22:05.691Z,0
2018-03-25T03:23:15.311Z,0
2018-03-25T03:24:24.327Z,0
2018-03-25T03:25:33.826Z,0
2018-03-25T03:26:43.047Z,0
2018-03-25T03:27:52.325Z,0
2018-03-25T03:29:01.591Z,0
2018-03-25T03:30:10.852Z,0
2018-03-25T03:31:20.180Z,0
2018-03-25T03:32:29.507Z,0
2018-03-25T03:33:38.739Z,0
2018-03-25T03:34:47.509Z,0
2018-03-25T03:35:56.291Z,0
2018-03-25T03:37:05.658Z,0
2018-03-25T03:38:14.752Z,0
2018-03-25T03:39:23.733Z,0
2018-03-25T03:40:32.994Z,0
2018-03-25T03:41:42.322Z,0
2018-03-25T03:42:51.526Z,0
2018-03-25T03:44:00.995Z,0
2018-03-25T03:45:09.764Z,0
2018-03-25T03:46:19.287Z,0
2018-03-25T03:47:28.589Z,0
2018-03-25T03:48:37.357Z,0
2018-03-25T03:49:46.340Z,0
2018-03-25T03:50:56.114Z,0
2018-03-25T03:52:04.829Z,0
2018-03-25T03:53:14.098Z,0
2018-03-25T03:54:23.347Z,0
2018-03-25T03:55:32.323Z,0
2018-03-25T03:56:41.399Z,0
2018-03-25T03:57:50.764Z,0
2018-03-25T03:59:00.300Z,0
2018-03-25T04:00:09.565Z,0
2018-03-25T04:01:19.084Z,0
2018-03-25T04:02:27.825Z,0
2018-03-25T04:03:36.570Z,0
2018-03-25T04:04:46.415Z,0
2018-03-25T04:05:55.494Z,0
2018-03-25T04:07:04.318Z,0
2018-03-25T04:08:13.341Z,0
2018-03-25T04:09:22.874Z,0
2018-03-25T04:10:31.849Z,0
2018-03-25T04:11:41.104Z,0
2018-03-25T04:12:50.359Z,0
2018-03-25T04:13:59.647Z,0
2018-03-25T04:15:08.583Z,0
2018-03-25T04:16:17.879Z,0
2018-03-25T04:17:27.647Z,0
2018-03-25T04:18:36.448Z,0
2018-03-25T04:19:45.483Z,0
2018-03-25T04:20:55.080Z,0
2018-03-25T04:22:04.321Z,0
2018-03-25T04:23:13.556Z,0
2018-03-25T04:24:22.569Z,0
2018-03-25T04:25:31.809Z,0
2018-03-25T04:26:41.589Z,0
2018-03-25T04:27:50.852Z,0
2018-03-25T04:29:00.179Z,0
2018-03-25T04:30:09.150Z,0
2018-03-25T04:31:18.665Z,0
2018-03-25T04:32:27.682Z,0
2018-03-25T04:33:36.863Z,0
2018-03-25T04:34:46.092Z,0
2018-03-25T04:35:55.201Z,0
2018-03-25T04:37:04.231Z,0
2018-03-25T04:38:12.998Z,0
2018-03-25T04:39:22.605Z,0
2018-03-25T04:40:32.271Z,0
2018-03-25T04:41:41.533Z,0
2018-03-25T04:42:50.547Z,0
2018-03-25T04:44:00.141Z,0
2018-03-25T04:45:09.125Z,0
2018-03-25T04:46:18.137Z,0
2018-03-25T04:47:27.534Z,0
2018-03-25T04:48:36.284Z,0
2018-03-25T04:49:45.294Z,0
2018-03-25T04:50:54.914Z,0
2018-03-25T04:52:04.488Z,0
2018-03-25T04:53:13.500Z,0
2018-03-25T04:54:22.799Z,0
2018-03-25T04:55:31.773Z,0
2018-03-25T04:56:41.319Z,0
2018-03-25T04:57:50.312Z,0
2018-03-25T04:58:59.623Z,0
2018-03-25T05:00:09.204Z,0
2018-03-25T05:01:18.202Z,0
2018-03-25T05:02:27.488Z,0
2018-03-25T05:03:36.990Z,0
2018-03-25T05:04:45.964Z,0
2018-03-25T05:05:55.037Z,0
2018-03-25T05:07:04.121Z,0
2018-03-25T05:08:13.131Z,0
2018-03-25T05:09:22.637Z,0
2018-03-25T05:10:31.645Z,0
2018-03-25T05:11:40.880Z,0
2018-03-25T05:12:49.883Z,0
2018-03-25T05:13:58.951Z,0
2018-03-25T05:15:07.964Z,0
2018-03-25T05:16:17.504Z,0
2018-03-25T05:17:26.885Z,0
2018-03-25T05:18:36.399Z,0
2018-03-25T05:19:45.162Z,0
2018-03-25T05:20:54.175Z,0
2018-03-25T05:22:02.959Z,0
2018-03-25T05:23:11.939Z,0
2018-03-25T05:24:21.379Z,0
2018-03-25T05:25:30.642Z,0
2018-03-25T05:26:40.229Z,0
2018-03-25T05:27:48.974Z,0
2018-03-25T05:28:58.021Z,0
2018-03-25T05:30:07.320Z,0
2018-03-25T05:31:17.129Z,0
2018-03-25T05:32:26.403Z,0
2018-03-25T05:33:35.470Z,0
2018-03-25T05:34:44.803Z,0
2018-03-25T05:35:53.881Z,0
2018-03-25T05:37:03.439Z,0
2018-03-25T05:38:13.039Z,0
2018-03-25T05:39:22.855Z,0
2018-03-25T05:40:32.491Z,0
2018-03-25T05:41:41.762Z,0
2018-03-25T05:42:50.911Z,0
2018-03-25T05:43:59.966Z,0
2018-03-25T05:45:08.991Z,4
2018-03-25T05:46:18.012Z,4
2018-03-25T05:47:27.102Z,4
2018-03-25T05:48:36.436Z,4
2018-03-25T05:49:45.734Z,4
2018-03-25T05:50:54.500Z,4
2018-03-25T05:52:04.069Z,0
2018-03-25T05:53:13.124Z,0
2018-03-25T05:54:22.141Z,0
2018-03-25T05:55:31.420Z,0
2018-03-25T05:56:40.430Z,4
2018-03-25T05:57:49.514Z,4
2018-03-25T05:58:58.545Z,4
2018-03-25T06:00:07.864Z,4
2018-03-25T06:01:16.996Z,4
2018-03-25T06:02:26.574Z,4
2018-03-25T06:03:35.604Z,4
2018-03-25T06:04:44.621Z,4
2018-03-25T06:05:53.645Z,4
2018-03-25T06:07:02.635Z,4
2018-03-25T06:08:11.899Z,4
2018-03-25T06:09:21.075Z,4
2018-03-25T06:10:30.062Z,4
2018-03-25T06:11:39.267Z,4
2018-03-25T06:12:48.557Z,4
2018-03-25T06:13:57.810Z,4
2018-03-25T06:15:07.306Z,4
2018-03-25T06:16:16.858Z,8
2018-03-25T06:17:25.870Z,8
2018-03-25T06:18:35.089Z,8
2018-03-25T06:19:43.804Z,8
2018-03-25T06:20:53.029Z,4
2018-03-25T06:22:01.865Z,4
2018-03-25T06:23:11.350Z,4
2018-03-25T06:24:20.621Z,8
2018-03-25T06:25:29.571Z,8
2018-03-25T06:26:38.549Z,8
2018-03-25T06:27:47.546Z,8
2018-03-25T06:28:56.298Z,8
2018-03-25T06:30:05.242Z,8
2018-03-25T06:31:14.499Z,8
2018-03-25T06:32:23.433Z,8
2018-03-25T06:33:32.192Z,8
2018-03-25T06:34:41.138Z,8
2018-03-25T06:35:49.846Z,8
2018-03-25T06:36:59.112Z,8
2018-03-25T06:38:08.190Z,12
2018-03-25T06:39:17.671Z,12
2018-03-25T06:40:27.235Z,12
2018-03-25T06:41:35.983Z,8
2018-03-25T06:42:44.911Z,8
2018-03-25T06:43:54.175Z,8
2018-03-25T06:45:03.531Z,8
2018-03-25T06:46:12.784Z,12
2018-03-25T06:47:21.576Z,12
2018-03-25T06:48:30.864Z,12
2018-03-25T06:49:40.160Z,12
2018-03-25T06:50:48.944Z,12
2018-03-25T06:51:58.004Z,12
2018-03-25T06:53:06.778Z,12
2018-03-25T06:54:15.890Z,12
2018-03-25T06:55:24.845Z,12
2018-03-25T06:56:34.175Z,12
2018-03-25T06:57:43.155Z,16
2018-03-25T06:58:52.149Z,16
2018-03-25T07:00:00.879Z,16
2018-03-25T07:01:09.872Z,12
2018-03-25T07:02:19.133Z,16
2018-03-25T07:03:28.086Z,16
2018-03-25T07:04:36.780Z,16
2018-03-25T07:05:45.785Z,16
2018-03-25T07:06:55.373Z,16
2018-03-25T07:08:04.408Z,20
2018-03-25T07:09:13.384Z,16
2018-03-25T07:10:23.445Z,16
2018-03-25T07:11:32.726Z,20
2018-03-25T07:12:41.673Z,20
2018-03-25T07:13:51.919Z,20
2018-03-25T07:15:00.947Z,20
2018-03-25T07:16:09.944Z,20
2018-03-25T07:17:18.948Z,24
2018-03-25T07:18:27.956Z,20
2018-03-25T07:19:37.449Z,24
2018-03-25T07:20:46.999Z,24
2018-03-25T07:21:55.990Z,24
2018-03-25T07:23:04.963Z,24
2018-03-25T07:24:14.235Z,24
2018-03-25T07:25:23.517Z,28
2018-03-25T07:26:32.611Z,24
2018-03-25T07:27:41.592Z,28
2018-03-25T07:28:50.894Z,28
2018-03-25T07:29:59.661Z,32
2018-03-25T07:31:08.692Z,28
2018-03-25T07:32:18.583Z,28
2018-03-25T07:33:27.793Z,32
2018-03-25T07:34:36.787Z,32
2018-03-25T07:35:47.278Z,36
2018-03-25T07:36:56.513Z,32
2018-03-25T07:38:05.203Z,36
2018-03-25T07:39:14.945Z,36
2018-03-25T07:40:24.207Z,36
2018-03-25T07:41:33.448Z,36
2018-03-25T07:42:42.877Z,36
2018-03-25T07:43:52.404Z,36
2018-03-25T07:45:02.068Z,40
2018-03-25T07:46:10.843Z,40
2018-03-25T07:47:19.570Z,36
2018-03-25T07:48:28.624Z,40
2018-03-25T07:49:38.219Z,44
2018-03-25T07:50:47.517Z,40
2018-03-25T07:51:57.205Z,44
2018-03-25T07:53:06.299Z,44
2018-03-25T07:54:15.421Z,48
2018-03-25T07:55:24.608Z,48
2018-03-25T07:56:33.346Z,48
2018-03-25T07:57:42.678Z,52
2018-03-25T07:58:52.461Z,52
2018-03-25T08:00:01.149Z,52
2018-03-25T08:01:10.171Z,52
2018-03-25T08:02:19.655Z,52
2018-03-25T08:03:28.707Z,52
2018-03-25T08:04:37.690Z,56
2018-03-25T08:05:46.697Z,52
2018-03-25T08:06:55.712Z,48
2018-03-25T08:08:05.219Z,52
2018-03-25T08:09:14.780Z,52
2018-03-25T08:10:23.730Z,56
2018-03-25T08:11:33.217Z,52
2018-03-25T08:12:42.520Z,56
2018-03-25T08:13:51.731Z,56
2018-03-25T08:15:00.942Z,56
2018-03-25T08:16:09.980Z,56
2018-03-25T08:17:19.313Z,56
2018-03-25T08:18:28.839Z,56
2018-03-25T08:19:38.120Z,56
2018-03-25T08:20:47.651Z,52
2018-03-25T08:21:57.197Z,56
2018-03-25T08:23:06.471Z,56
2018-03-25T08:24:15.485Z,56
2018-03-25T08:25:25.017Z,56
2018-03-25T08:26:34.037Z,56
2018-03-25T08:27:43.653Z,56
2018-03-25T08:28:52.689Z,56
2018-03-25T08:30:01.907Z,56
2018-03-25T08:31:10.926Z,56
2018-03-25T08:32:19.902Z,56
2018-03-25T08:33:28.754Z,56
2018-03-25T08:34:38.040Z,56
2018-03-25T08:35:46.775Z,56
2018-03-25T08:36:56.280Z,56
2018-03-25T08:38:05.622Z,56
2018-03-25T08:39:14.891Z,60
2018-03-25T08:40:23.726Z,56
2018-03-25T08:41:33.224Z,56
2018-03-25T08:42:42.563Z,60
2018-03-25T08:43:51.307Z,56
2018-03-25T08:45:00.517Z,60
2018-03-25T08:46:09.762Z,60
2018-03-25T08:47:18.727Z,60
2018-03-25T08:48:27.709Z,60
2018-03-25T08:49:38.506Z,64
2018-03-25T08:50:47.200Z,60
2018-03-25T08:51:56.847Z,64
2018-03-25T08:53:06.101Z,64
2018-03-25T08:54:15.330Z,64
2018-03-25T08:55:24.330Z,64
2018-03-25T08:56:33.585Z,68
2018-03-25T08:57:43.054Z,64
2018-03-25T08:58:52.821Z,64
2018-03-25T09:00:02.503Z,68
2018-03-25T09:01:11.886Z,68
2018-03-25T09:02:21.335Z,64
2018-03-25T09:03:30.282Z,64
2018-03-25T09:04:39.258Z,68
2018-03-25T09:05:48.777Z,68
2018-03-25T09:06:58.025Z,68
2018-03-25T09:08:06.786Z,72
2018-03-25T09:09:16.303Z,72
2018-03-25T09:10:25.542Z,72
2018-03-25T09:11:34.768Z,72
2018-03-25T09:12:43.503Z,80
2018-03-25T09:13:52.587Z,80
2018-03-25T09:15:02.444Z,80
2018-03-25T09:16:12.213Z,80
2018-03-25T09:17:21.247Z,80
2018-03-25T09:18:30.230Z,84
2018-03-25T09:19:39.469Z,80
2018-03-25T09:20:48.936Z,80
2018-03-25T09:21:57.956Z,80
2018-03-25T09:23:07.214Z,84
2018-03-25T09:24:16.781Z,84
2018-03-25T09:25:26.021Z,84
2018-03-25T09:26:35.770Z,84
2018-03-25T09:27:45.313Z,88
2018-03-25T09:28:54.340Z,84
2018-03-25T09:30:03.629Z,88
2018-03-25T09:31:12.863Z,88
2018-03-25T09:32:21.594Z,88
2018-03-25T09:33:30.571Z,88
2018-03-25T09:34:39.862Z,88
2018-03-25T09:35:49.919Z,84
2018-03-25T09:36:59.076Z,88
2018-03-25T09:38:07.996Z,88
2018-03-25T09:39:17.362Z,88
2018-03-25T09:40:26.816Z,84
2018-03-25T09:41:36.264Z,84
2018-03-25T09:42:45.476Z,84
2018-03-25T09:43:54.462Z,84
2018-03-25T09:45:03.642Z,80
2018-03-25T09:46:12.372Z,84
2018-03-25T09:47:21.610Z,84
2018-03-25T09:48:30.865Z,80
2018-03-25T09:49:39.856Z,80
2018-03-25T09:50:48.925Z,68
2018-03-25T09:51:57.935Z,72
2018-03-25T09:53:07.218Z,72
2018-03-25T09:54:16.148Z,72
2018-03-25T09:55:25.397Z,68
2018-03-25T09:56:34.829Z,72
2018-03-25T09:57:43.769Z,72
2018-03-25T09:58:52.772Z,68
2018-03-25T10:00:01.818Z,68
2018-03-25T10:01:10.835Z,72
2018-03-25T10:02:20.108Z,68
2018-03-25T10:03:29.342Z,68
2018-03-25T10:04:39.055Z,64
2018-03-25T10:05:48.253Z,68
2018-03-25T10:06:57.831Z,64
2018-03-25T10:08:06.790Z,64
2018-03-25T10:09:16.023Z,68
2018-03-25T10:10:25.266Z,64
2018-03-25T10:11:34.966Z,64
2018-03-25T10:12:43.902Z,64
2018-03-25T10:13:53.743Z,64
2018-03-25T10:15:02.620Z,64
2018-03-25T10:16:12.591Z,60
2018-03-25T10:17:21.945Z,64
2018-03-25T10:18:31.476Z,64
2018-03-25T10:19:40.298Z,60
2018-03-25T10:20:49.605Z,60
2018-03-25T10:21:58.687Z,60
2018-03-25T10:23:07.500Z,56
2018-03-25T10:24:16.463Z,60
2018-03-25T10:25:25.444Z,60
2018-03-25T10:26:34.445Z,56
2018-03-25T10:27:43.661Z,60
2018-03-25T10:28:52.685Z,56
2018-03-25T10:30:01.664Z,56
2018-03-25T10:31:10.616Z,60
2018-03-25T10:32:19.823Z,56
2018-03-25T10:33:29.013Z,56
2018-03-25T10:34:38.616Z,56
2018-03-25T10:35:47.594Z,56
2018-03-25T10:36:56.859Z,56
2018-03-25T10:38:05.861Z,52
2018-03-25T10:39:14.882Z,52
2018-03-25T10:40:23.838Z,56
2018-03-25T10:41:32.834Z,52
2018-03-25T10:42:41.837Z,48
2018-03-25T10:43:50.496Z,52
2018-03-25T10:44:59.465Z,52
2018-03-25T10:46:08.624Z,48
2018-03-25T10:47:17.912Z,52
2018-03-25T10:48:26.998Z,48
2018-03-25T10:49:36.309Z,48
2018-03-25T10:50:46.061Z,48
2018-03-25T10:51:55.100Z,52
2018-03-25T10:53:04.084Z,48
2018-03-25T10:54:13.085Z,48
2018-03-25T10:55:21.842Z,44
2018-03-25T10:56:31.335Z,48
2018-03-25T10:57:40.843Z,48
2018-03-25T10:58:49.802Z,44
2018-03-25T10:59:59.037Z,44
2018-03-25T11:01:08.344Z,44
2018-03-25T11:02:17.125Z,44
2018-03-25T11:03:26.383Z,48
2018-03-25T11:04:35.608Z,44
2018-03-25T11:05:45.202Z,44
2018-03-25T11:06:54.220Z,44
2018-03-25T11:08:03.575Z,44
2018-03-25T11:09:12.548Z,44
2018-03-25T11:10:21.555Z,40
2018-03-25T11:11:30.267Z,40
2018-03-25T11:12:39.271Z,44
2018-03-25T11:13:48.209Z,40
2018-03-25T11:14:56.997Z,40
2018-03-25T11:16:05.977Z,40
2018-03-25T11:17:14.685Z,40
2018-03-25T11:18:24.402Z,40
2018-03-25T11:19:33.344Z,36
2018-03-25T11:20:42.304Z,40
2018-03-25T11:21:51.514Z,36
2018-03-25T11:23:00.180Z,36
2018-03-25T11:24:09.448Z,36
2018-03-25T11:25:18.674Z,36
2018-03-25T11:26:27.395Z,36
2018-03-25T11:27:36.722Z,36
2018-03-25T11:28:46.194Z,36
2018-03-25T11:29:54.879Z,36
2018-03-25T11:31:03.825Z,36
2018-03-25T11:32:12.770Z,32
2018-03-25T11:33:21.766Z,32
2018-03-25T11:34:30.733Z,32
2018-03-25T11:35:39.460Z,28
2018-03-25T11:36:48.771Z,32
2018-03-25T11:37:57.731Z,32
2018-03-25T11:39:06.711Z,28
2018-03-25T11:40:15.641Z,28
2018-03-25T11:41:25.096Z,28
2018-03-25T11:42:34.605Z,28
2018-03-25T11:43:43.557Z,28
2018-03-25T11:44:52.790Z,28
2018-03-25T11:46:01.594Z,28
2018-03-25T11:47:10.549Z,28
2018-03-25T11:48:23.105Z,28
2018-03-25T11:49:33.271Z,28
2018-03-25T11:50:42.250Z,28
2018-03-25T11:51:50.940Z,32
2018-03-25T11:53:00.202Z,32
2018-03-25T11:54:09.181Z,32
2018-03-25T11:55:18.134Z,32
2018-03-25T11:56:27.404Z,32
2018-03-25T11:57:36.158Z,32
2018-03-25T11:58:45.661Z,32
2018-03-25T11:59:54.423Z,32
2018-03-25T12:01:03.720Z,32
2018-03-25T12:02:12.782Z,36
2018-03-25T12:03:21.492Z,32
2018-03-25T12:04:30.797Z,32
2018-03-25T12:05:39.823Z,32
2018-03-25T12:06:48.792Z,32
2018-03-25T12:07:58.060Z,36
2018-03-25T12:09:07.059Z,36
2018-03-25T12:10:16.285Z,36
2018-03-25T12:11:25.290Z,36
2018-03-25T12:12:34.080Z,36
2018-03-25T12:13:43.650Z,36
2018-03-25T12:14:52.978Z,36
2018-03-25T12:16:02.012Z,36
2018-03-25T12:17:11.511Z,40
2018-03-25T12:18:20.794Z,40
2018-03-25T12:19:30.164Z,36
2018-03-25T12:20:39.148Z,40
2018-03-25T12:21:48.093Z,36
2018-03-25T12:22:57.340Z,40
2018-03-25T12:24:06.618Z,40
2018-03-25T12:25:16.391Z,40
2018-03-25T12:26:25.955Z,40
2018-03-25T12:27:35.236Z,40
2018-03-25T12:28:44.035Z,40
2018-03-25T12:29:53.334Z,44
2018-03-25T12:31:02.437Z,40
2018-03-25T12:32:11.492Z,40
2018-03-25T12:33:20.864Z,40
2018-03-25T12:34:29.880Z,40
2018-03-25T12:35:39.151Z,44
2018-03-25T12:36:48.166Z,44
2018-03-25T12:37:56.903Z,44
2018-03-25T12:39:05.909Z,40
2018-03-25T12:40:15.517Z,44
2018-03-25T12:41:24.830Z,44
2018-03-25T12:42:34.330Z,44
2018-03-25T12:43:43.026Z,44
2018-03-25T12:44:51.769Z,44
2018-03-25T12:46:00.751Z,44
2018-03-25T12:47:09.694Z,44
2018-03-25T12:48:18.915Z,48
2018-03-25T12:49:27.859Z,48
2018-03-25T12:50:37.076Z,48
2018-03-25T12:51:45.832Z,48
2018-03-25T12:52:55.281Z,48
2018-03-25T12:54:04.292Z,48
2018-03-25T12:55:13.304Z,48
2018-03-25T12:56:22.303Z,52
2018-03-25T12:57:31.342Z,52
2018-03-25T12:58:40.922Z,52
2018-03-25T12:59:49.705Z,52
2018-03-25T13:00:58.406Z,52
2018-03-25T13:02:07.537Z,56
2018-03-25T13:03:16.579Z,52
2018-03-25T13:04:26.180Z,52
2018-03-25T13:05:34.943Z,56
2018-03-25T13:06:44.237Z,52
2018-03-25T13:07:53.542Z,52
2018-03-25T13:09:02.865Z,56
2018-03-25T13:10:12.502Z,56
2018-03-25T13:11:21.803Z,60
2018-03-25T13:12:30.863Z,56
2018-03-25T13:13:40.149Z,60
2018-03-25T13:14:49.047Z,56
2018-03-25T13:15:58.082Z,60
2018-03-25T13:17:08.176Z,60
2018-03-25T13:18:17.459Z,60
2018-03-25T13:19:26.592Z,60
2018-03-25T13:20:35.397Z,60
2018-03-25T13:21:44.958Z,60
2018-03-25T13:22:54.656Z,60
2018-03-25T13:24:04.006Z,60
2018-03-25T13:25:13.370Z,60
2018-03-25T13:26:22.635Z,60
2018-03-25T13:27:31.673Z,60
2018-03-25T13:28:40.450Z,64
2018-03-25T13:29:50.386Z,64
2018-03-25T13:30:59.440Z,60
2018-03-25T13:32:08.796Z,56
2018-03-25T13:33:18.122Z,48
2018-03-25T13:34:27.242Z,52
2018-03-25T13:35:36.943Z,48
2018-03-25T13:36:45.733Z,52
2018-03-25T13:37:55.017Z,52
2018-03-25T13:39:04.051Z,52
2018-03-25T13:40:14.699Z,52
2018-03-25T13:41:23.979Z,52
2018-03-25T13:42:33.572Z,52
2018-03-25T13:43:42.650Z,48
2018-03-25T13:44:51.706Z,52
2018-03-25T13:46:00.752Z,56
2018-03-25T13:47:10.115Z,56
2018-03-25T13:48:19.434Z,56
2018-03-25T13:49:28.845Z,56
2018-03-25T13:50:37.972Z,52
2018-03-25T13:51:47.747Z,56
2018-03-25T13:52:57.708Z,52
2018-03-25T13:54:06.848Z,24
2018-03-25T13:55:16.428Z,16
2018-03-25T13:56:25.281Z,16
2018-03-25T13:57:35.046Z,36
2018-03-25T13:58:44.713Z,56
2018-03-25T13:59:54.304Z,56
2018-03-25T14:01:03.586Z,60
2018-03-25T14:02:13.676Z,60
2018-03-25T14:03:23.185Z,56
2018-03-25T14:04:32.212Z,56
2018-03-25T14:05:41.232Z,60
2018-03-25T14:06:50.269Z,60
2018-03-25T14:07:59.154Z,56
2018-03-25T14:09:08.124Z,56
2018-03-25T14:10:16.912Z,64
2018-03-25T14:11:25.641Z,60
2018-03-25T14:12:34.649Z,56
2018-03-25T14:13:43.751Z,60
2018-03-25T14:14:52.767Z,60
2018-03-25T14:16:01.490Z,56
2018-03-25T14:17:10.817Z,56
2018-03-25T14:18:20.139Z,56
2018-03-25T14:19:29.560Z,56
2018-03-25T14:20:38.971Z,48
2018-03-25T14:21:48.590Z,36
2018-03-25T14:22:57.952Z,24
2018-03-25T14:24:06.703Z,16
2018-03-25T14:25:15.563Z,20
2018-03-25T14:26:24.625Z,24
2018-03-25T14:27:34.491Z,24
2018-03-25T14:28:43.514Z,20
2018-03-25T14:29:52.854Z,20
2018-03-25T14:31:02.195Z,20
2018-03-25T14:32:11.183Z,20
2018-03-25T14:33:20.157Z,20
2018-03-25T14:34:29.219Z,20
2018-03-25T14:35:37.911Z,24
2018-03-25T14:36:47.411Z,20
2018-03-25T14:37:56.407Z,20
2018-03-25T14:39:05.486Z,20
2018-03-25T14:40:14.685Z,20
2018-03-25T14:41:23.873Z,20
2018-03-25T14:42:33.730Z,24
2018-03-25T14:43:42.605Z,20
2018-03-25T14:44:51.828Z,20
2018-03-25T14:46:01.725Z,20
2018-03-25T14:47:10.724Z,24
2018-03-25T14:48:19.675Z,24
2018-03-25T14:49:28.945Z,20
2018-03-25T14:50:37.642Z,20
2018-03-25T14:51:47.095Z,24
2018-03-25T14:52:56.195Z,24
2018-03-25T14:54:05.104Z,20
2018-03-25T14:55:14.145Z,20
2018-03-25T14:56:23.592Z,20
2018-03-25T14:57:32.509Z,16
2018-03-25T14:58:41.495Z,20
2018-03-25T14:59:50.167Z,16
2018-03-25T15:00:59.531Z,20
2018-03-25T15:02:09.490Z,20
2018-03-25T15:03:18.520Z,20
2018-03-25T15:04:27.623Z,20
2018-03-25T15:05:36.592Z,20
2018-03-25T15:06:46.407Z,20
2018-03-25T15:07:55.734Z,20
2018-03-25T15:09:04.989Z,20
2018-03-25T15:10:14.552Z,20
2018-03-25T15:11:23.554Z,20
2018-03-25T15:12:32.295Z,16
2018-03-25T15:13:41.251Z,16
2018-03-25T15:14:50.476Z,16
2018-03-25T15:16:00.188Z,20
2018-03-25T15:17:09.432Z,20
2018-03-25T15:18:18.348Z,16
2018-03-25T15:19:27.652Z,16
2018-03-25T15:20:37.065Z,16
2018-03-25T15:21:46.590Z,16
2018-03-25T15:22:55.852Z,16
2018-03-25T15:24:04.776Z,16
2018-03-25T15:25:13.702Z,16
2018-03-25T15:26:22.903Z,16
2018-03-25T15:27:32.185Z,16
2018-03-25T15:28:41.188Z,16
2018-03-25T15:29:50.649Z,16
2018-03-25T15:30:59.638Z,16
2018-03-25T15:32:08.842Z,16
2018-03-25T15:33:18.325Z,16
2018-03-25T15:34:27.263Z,12
2018-03-25T15:35:35.948Z,16
2018-03-25T15:36:44.958Z,12
2018-03-25T15:37:54.582Z,12
2018-03-25T15:39:04.494Z,12
2018-03-25T15:40:13.419Z,12
2018-03-25T15:41:22.420Z,8
2018-03-25T15:42:31.700Z,8
2018-03-25T15:43:40.439Z,8
2018-03-25T15:44:50.218Z,8
2018-03-25T15:45:59.008Z,8
2018-03-25T15:47:08.252Z,4
2018-03-25T15:48:17.313Z,4
2018-03-25T15:49:26.271Z,4
2018-03-25T15:50:35.401Z,8
2018-03-25T15:51:44.978Z,4
2018-03-25T15:52:54.181Z,4
2018-03-25T15:54:03.659Z,4
2018-03-25T15:55:12.853Z,4
2018-03-25T15:56:21.847Z,8
2018-03-25T15:57:30.839Z,4
2018-03-25T15:58:40.383Z,4
2018-03-25T15:59:49.387Z,4
2018-03-25T16:00:58.602Z,4
2018-03-25T16:02:07.297Z,4
2018-03-25T16:03:16.797Z,4
2018-03-25T16:04:26.012Z,4
2018-03-25T16:05:34.951Z,4
2018-03-25T16:06:44.187Z,4
2018-03-25T16:07:53.137Z,4
2018-03-25T16:09:02.178Z,4
2018-03-25T16:10:11.548Z,4
2018-03-25T16:11:20.600Z,4
2018-03-25T16:12:29.693Z,4
2018-03-25T16:13:39.070Z,4
2018-03-25T16:14:48.472Z,4
2018-03-25T16:15:57.731Z,4
2018-03-25T16:17:06.486Z,4
2018-03-25T16:18:15.538Z,4
2018-03-25T16:19:25.003Z,4
2018-03-25T16:20:34.099Z,4
2018-03-25T16:21:43.474Z,4
2018-03-25T16:22:53.114Z,0
2018-03-25T16:24:02.353Z,0
2018-03-25T16:25:11.797Z,0
2018-03-25T16:26:20.606Z,4
2018-03-25T16:27:29.721Z,4
2018-03-25T16:28:38.821Z,4
2018-03-25T16:29:47.864Z,4
2018-03-25T16:30:56.696Z,4
2018-03-25T16:32:05.520Z,4
2018-03-25T16:33:14.591Z,4
2018-03-25T16:34:23.635Z,4
2018-03-25T16:35:32.932Z,4
2018-03-25T16:36:42.121Z,4
2018-03-25T16:37:51.649Z,4
2018-03-25T16:39:01.103Z,4
2018-03-25T16:40:09.948Z,4
2018-03-25T16:41:19.275Z,4
2018-03-25T16:42:28.103Z,4
2018-03-25T16:43:36.925Z,0